Morada, California
Current Conditions -  °F | °C
As of 8:55 AM on Saturday 25 Oct 2014 (Local Time) from KSCK Reporting Station
Light Rain Light Rain  
Wind Chill: 61°   Ceiling: 4100
Heat Index: 61°   Visibility: 8mi
Dew Point: 55°   Wind: 6mph
Humidity: 81%   Direction: 270°W
Pressure: 30.03"   Gusts: NA
Location:  38.0455°N, 121.227°W
Report Text: KSCK 251555Z 27005KT 8SM -RA SCT019 OVC041 16/13 A3003 RMK AO2 RAB44 SLP168 P0000 T01610128
Loading
Personal Weather Stations






























Interactive Weather Map
Tropical Storm Tracking
New forecast layout! Learn more

10-Day Weather Forecast

Advertisements
Track Severe Weather on mobile